Time;durP1;ratioP1;P1;durP2;ratioP2;P2;SDS_P1;SDS_P2;PMS_P1;PMS_P2;Temp;Humidity;BMP_temperature;BMP_pressure;BME280_temperature;BME280_humidity;BME280_pressure;Samples;Min_cycle;Max_cycle;Signal;HPM_P1;HPM_P2
2021/11/07 00:04:49;;;;;;;2.63;1.48;;;17.60;99.90;;;;;;5092947;28;20070;-69
2021/11/07 00:09:50;;;;;;;3.20;1.52;;;17.50;99.90;;;;;;5092259;28;20024;-70
2021/11/07 00:12:28;;;;;;;2.63;1.55;;;17.50;99.90;;;;;;5092166;28;20391;-70
2021/11/07 00:14:53;;;;;;;3.00;1.33;;;17.50;99.90;;;;;;5093123;28;20393;-70
2021/11/07 00:17:23;;;;;;;3.42;1.27;;;17.50;99.90;;;;;;5093671;28;20023;-69
2021/11/07 00:19:53;;;;;;;3.55;1.30;;;17.50;99.90;;;;;;5093294;28;20124;-70
2021/11/07 00:24:54;;;;;;;3.90;1.25;;;17.40;99.90;;;;;;5093158;28;20036;-69
2021/11/07 00:27:33;;;;;;;3.22;1.48;;;17.50;99.90;;;;;;5093426;28;20026;-69
2021/11/07 00:37:59;;;;;;;2.25;1.40;;;17.40;99.90;;;;;;5093189;28;20058;-69
2021/11/07 00:43:09;;;;;;;2.30;1.40;;;17.30;99.90;;;;;;5092871;28;20034;-69
2021/11/07 00:51:34;;;;;;;3.45;1.40;;;17.30;99.90;;;;;;5092433;28;20035;-69
2021/11/07 00:59:47;;;;;;;2.50;1.17;;;17.30;99.90;;;;;;5090562;28;20020;-69
2021/11/07 01:02:18;;;;;;;2.80;1.38;;;17.20;99.90;;;;;;5090365;28;20035;-69
2021/11/07 01:04:47;;;;;;;3.45;1.48;;;17.20;99.90;;;;;;5091164;28;20044;-69
2021/11/07 01:07:14;;;;;;;4.30;1.30;;;17.20;99.90;;;;;;5091111;28;20026;-69
2021/11/07 01:09:40;;;;;;;2.80;1.50;;;17.20;99.90;;;;;;5092075;28;20035;-69
2021/11/07 01:12:07;;;;;;;7.90;1.55;;;17.20;99.90;;;;;;5092299;28;20024;-69
2021/11/07 01:14:34;;;;;;;2.28;1.33;;;17.20;99.90;;;;;;5091840;28;20047;-69
2021/11/07 01:17:00;;;;;;;2.22;1.20;;;17.20;99.90;;;;;;5090282;28;20020;-69
2021/11/07 01:19:26;;;;;;;2.75;1.50;;;17.20;99.90;;;;;;5091165;28;20079;-69
2021/11/07 01:21:52;;;;;;;3.00;1.38;;;17.20;99.90;;;;;;5092622;28;20472;-68
2021/11/07 01:24:31;;;;;;;3.63;1.25;;;17.20;99.90;;;;;;5091989;28;20074;-68
2021/11/07 01:27:08;;;;;;;3.80;1.60;;;17.10;99.90;;;;;;5092091;28;20028;-69
2021/11/07 01:29:40;;;;;;;2.95;1.48;;;17.10;99.90;;;;;;5091892;28;20024;-69
2021/11/07 01:32:06;;;;;;;2.42;1.42;;;17.10;99.90;;;;;;5091985;28;20024;-68
2021/11/07 01:37:02;;;;;;;4.50;1.42;;;17.10;99.90;;;;;;5091825;28;20016;-68
2021/11/07 01:39:45;;;;;;;3.05;1.55;;;17.10;99.90;;;;;;5091484;28;20527;-68
2021/11/07 01:45:04;;;;;;;4.25;1.50;;;17.10;99.90;;;;;;5092240;28;20091;-68
2021/11/07 01:47:32;;;;;;;3.92;1.67;;;17.10;99.90;;;;;;5091389;28;20490;-68
2021/11/07 01:49:58;;;;;;;3.05;1.30;;;17.00;99.90;;;;;;5091712;28;20047;-68
2021/11/07 01:52:26;;;;;;;3.03;1.42;;;17.00;99.90;;;;;;5092201;28;20055;-69
2021/11/07 01:57:25;;;;;;;2.78;1.40;;;17.00;99.90;;;;;;5091577;28;20031;-69
2021/11/07 01:59:57;;;;;;;3.65;1.67;;;17.00;99.90;;;;;;5091650;28;20042;-68
2021/11/07 02:02:29;;;;;;;2.75;1.20;;;17.00;99.90;;;;;;5091923;28;20476;-68
2021/11/07 02:04:55;;;;;;;2.88;1.50;;;17.00;99.90;;;;;;5090857;28;20039;-68
2021/11/07 02:07:21;;;;;;;2.42;1.38;;;17.00;99.90;;;;;;5091722;28;20024;-69
2021/11/07 02:09:47;;;;;;;2.55;1.40;;;17.00;99.90;;;;;;5091308;28;20051;-69
2021/11/07 02:12:13;;;;;;;3.05;1.88;;;17.00;99.90;;;;;;5091522;28;20464;-68
2021/11/07 02:14:41;;;;;;;3.08;1.60;;;17.00;99.90;;;;;;5091222;28;20043;-68
2021/11/07 02:17:08;;;;;;;2.40;1.25;;;17.00;99.90;;;;;;5091474;28;20095;-69
2021/11/07 02:19:34;;;;;;;3.10;1.27;;;17.00;99.90;;;;;;5091355;28;20032;-68
2021/11/07 02:21:59;;;;;;;2.63;1.48;;;17.00;99.90;;;;;;5091628;28;20424;-68
2021/11/07 02:24:28;;;;;;;2.72;1.58;;;17.00;99.90;;;;;;5091913;28;20505;-70
2021/11/07 02:26:56;;;;;;;3.75;1.33;;;17.00;99.90;;;;;;5092806;28;20030;-68
2021/11/07 02:29:23;;;;;;;1.83;1.27;;;17.00;99.90;;;;;;5095783;28;20027;-68
2021/11/07 02:31:51;;;;;;;2.13;1.15;;;17.00;99.90;;;;;;5095191;28;20024;-68
2021/11/07 02:34:17;;;;;;;2.45;1.30;;;17.00;99.90;;;;;;5095351;28;20036;-68
2021/11/07 02:36:44;;;;;;;2.10;1.40;;;17.00;99.90;;;;;;5095117;28;20023;-68
2021/11/07 02:39:15;;;;;;;2.17;1.40;;;17.00;99.90;;;;;;5095371;28;20028;-67
2021/11/07 02:41:42;;;;;;;2.22;1.13;;;17.00;99.90;;;;;;5095158;28;20031;-68
2021/11/07 02:44:07;;;;;;;3.05;1.73;;;17.00;99.90;;;;;;5095223;28;20095;-68
2021/11/07 02:46:33;;;;;;;2.13;1.23;;;17.00;99.90;;;;;;5094872;28;20020;-69
2021/11/07 02:49:00;;;;;;;4.55;1.70;;;17.00;99.90;;;;;;5095026;28;20384;-68
2021/11/07 02:51:29;;;;;;;2.25;1.40;;;17.00;99.90;;;;;;5095356;28;20028;-68
2021/11/07 02:53:55;;;;;;;2.22;1.40;;;16.90;99.90;;;;;;5095283;28;20162;-68
2021/11/07 02:56:22;;;;;;;1.73;1.15;;;16.90;99.90;;;;;;5094953;28;20107;-68
2021/11/07 02:58:48;;;;;;;4.18;1.40;;;16.90;99.90;;;;;;5094498;28;20492;-68
2021/11/07 03:01:18;;;;;;;3.50;1.20;;;16.90;99.90;;;;;;5094909;28;20028;-69
2021/11/07 03:03:44;;;;;;;1.95;1.40;;;16.90;99.90;;;;;;5094669;28;20020;-68
2021/11/07 03:06:10;;;;;;;2.45;1.50;;;17.00;99.90;;;;;;5094944;28;20024;-69
2021/11/07 03:08:42;;;;;;;2.35;1.10;;;16.90;99.90;;;;;;5094577;28;20451;-69
2021/11/07 03:11:09;;;;;;;3.15;1.60;;;16.90;99.90;;;;;;5094827;28;20107;-68
2021/11/07 03:13:35;;;;;;;3.53;1.30;;;16.90;99.90;;;;;;5094538;28;20082;-69
2021/11/07 03:16:10;;;;;;;2.25;1.20;;;16.90;99.90;;;;;;5094533;28;20502;-68
2021/11/07 03:18:36;;;;;;;3.47;1.60;;;16.90;99.90;;;;;;5094381;28;20085;-68
2021/11/07 03:21:04;;;;;;;2.13;1.27;;;16.90;99.90;;;;;;5094574;28;20032;-69
2021/11/07 03:23:30;;;;;;;2.13;1.35;;;16.90;99.90;;;;;;5094343;28;20020;-68
2021/11/07 03:26:07;;;;;;;2.28;1.48;;;16.90;99.90;;;;;;5094652;28;20051;-69
2021/11/07 03:28:34;;;;;;;2.38;1.48;;;16.90;99.90;;;;;;5094294;28;20031;-69
2021/11/07 03:31:10;;;;;;;1.20;1.10;;;16.90;99.90;;;;;;5094458;28;20073;-68
2021/11/07 03:33:57;;;;;;;1.55;1.00;;;16.90;99.90;;;;;;5093898;28;20032;-69
2021/11/07 03:36:23;;;;;;;1.45;1.08;;;16.90;99.90;;;;;;5094623;28;20032;-69
2021/11/07 03:38:51;;;;;;;1.95;1.25;;;16.90;99.90;;;;;;5093273;28;20017;-69
2021/11/07 03:41:18;;;;;;;1.73;1.10;;;16.90;99.90;;;;;;5094115;28;20032;-69
2021/11/07 03:43:44;;;;;;;1.63;1.13;;;16.90;99.90;;;;;;5093874;28;20016;-69
2021/11/07 03:46:10;;;;;;;1.98;1.40;;;16.90;99.90;;;;;;5093879;28;20528;-68
2021/11/07 03:48:36;;;;;;;1.85;1.20;;;16.90;99.90;;;;;;5092373;28;20387;-68
2021/11/07 03:51:04;;;;;;;2.53;1.20;;;16.90;99.90;;;;;;5093737;28;20024;-68
2021/11/07 03:53:30;;;;;;;2.38;1.33;;;16.90;99.90;;;;;;5093702;28;20016;-68
2021/11/07 03:55:56;;;;;;;2.72;1.27;;;16.90;99.90;;;;;;5094187;28;20040;-69
2021/11/07 03:58:22;;;;;;;2.53;1.45;;;16.90;99.90;;;;;;5093954;28;20028;-69
2021/11/07 04:00:48;;;;;;;2.03;1.40;;;16.90;99.90;;;;;;5093504;28;20020;-69
2021/11/07 04:03:14;;;;;;;1.65;1.00;;;17.00;99.90;;;;;;5093483;28;20023;-69
2021/11/07 04:05:40;;;;;;;2.40;1.23;;;17.00;99.90;;;;;;5092074;28;20480;-70
2021/11/07 04:08:07;;;;;;;3.53;1.33;;;17.00;99.90;;;;;;5093632;28;20085;-69
2021/11/07 04:10:34;;;;;;;2.65;1.40;;;17.00;99.90;;;;;;5092017;28;20439;-69
2021/11/07 04:13:00;;;;;;;2.03;1.13;;;17.00;99.90;;;;;;5093621;28;20051;-69
2021/11/07 04:15:26;;;;;;;2.45;1.23;;;17.00;99.90;;;;;;5093674;28;20403;-69
2021/11/07 04:17:52;;;;;;;3.00;1.30;;;17.00;99.90;;;;;;5093499;28;20048;-70
2021/11/07 04:20:18;;;;;;;2.35;1.38;;;17.00;99.90;;;;;;5093408;28;20464;-70
2021/11/07 04:22:46;;;;;;;2.67;1.20;;;17.00;99.90;;;;;;5093214;28;20043;-70
2021/11/07 04:25:12;;;;;;;2.30;1.30;;;17.00;99.90;;;;;;5093359;28;20028;-70
2021/11/07 04:27:38;;;;;;;3.80;0.95;;;17.00;99.90;;;;;;5092960;28;20028;-69
2021/11/07 04:30:06;;;;;;;1.35;0.90;;;17.00;99.90;;;;;;5093261;28;20095;-69
2021/11/07 04:32:32;;;;;;;3.08;1.35;;;17.00;99.90;;;;;;5092875;28;20426;-69
2021/11/07 04:34:58;;;;;;;2.10;1.08;;;17.00;99.90;;;;;;5093062;28;20047;-69
2021/11/07 04:37:24;;;;;;;5.18;1.30;;;17.10;99.90;;;;;;5093327;28;20016;-69
2021/11/07 04:39:50;;;;;;;1.60;1.00;;;17.00;99.90;;;;;;5092826;28;20056;-70
2021/11/07 04:42:16;;;;;;;1.60;1.20;;;17.10;99.90;;;;;;5093111;28;20568;-70
2021/11/07 04:44:42;;;;;;;1.70;1.15;;;17.10;99.90;;;;;;5092539;28;20036;-69
2021/11/07 04:47:08;;;;;;;2.22;1.27;;;17.10;99.90;;;;;;5092769;28;20062;-69
2021/11/07 04:49:33;;;;;;;6.70;1.73;;;17.00;99.90;;;;;;5092433;28;20483;-69
2021/11/07 04:51:59;;;;;;;2.35;1.60;;;17.10;99.90;;;;;;5092206;28;20020;-70
2021/11/07 04:54:27;;;;;;;2.83;1.38;;;17.10;99.90;;;;;;5092997;28;20031;-69
2021/11/07 04:56:52;;;;;;;2.08;1.10;;;17.10;99.90;;;;;;5093069;28;20074;-69
2021/11/07 04:59:18;;;;;;;5.65;1.48;;;17.10;99.90;;;;;;5092471;28;20032;-68
2021/11/07 05:01:44;;;;;;;2.13;1.05;;;17.10;99.90;;;;;;5092324;28;20100;-69
2021/11/07 05:04:10;;;;;;;2.75;1.05;;;17.10;99.90;;;;;;5092673;28;20052;-69
2021/11/07 05:06:36;;;;;;;3.47;1.23;;;17.10;99.90;;;;;;5092344;28;20414;-69
2021/11/07 05:09:03;;;;;;;3.80;1.50;;;17.10;99.90;;;;;;5092508;28;20032;-69
2021/11/07 05:11:29;;;;;;;2.38;1.27;;;17.10;99.90;;;;;;5092239;28;20024;-69
2021/11/07 05:13:55;;;;;;;2.45;1.20;;;17.10;99.90;;;;;;5092738;28;20039;-69
2021/11/07 05:16:20;;;;;;;2.88;1.08;;;17.20;99.90;;;;;;5092301;28;20028;-69
2021/11/07 05:18:46;;;;;;;1.15;0.98;;;17.10;99.90;;;;;;5092173;28;20382;-69
2021/11/07 05:21:12;;;;;;;1.80;0.95;;;17.20;99.90;;;;;;5092452;28;20387;-69
2021/11/07 05:23:38;;;;;;;1.88;0.93;;;17.20;99.90;;;;;;5092099;28;20012;-69
2021/11/07 05:26:04;;;;;;;7.43;1.30;;;17.20;99.90;;;;;;5092030;28;20103;-69
2021/11/07 05:28:30;;;;;;;2.60;1.30;;;17.20;99.90;;;;;;5090570;28;20114;-69
2021/11/07 05:30:56;;;;;;;1.95;1.17;;;17.20;99.90;;;;;;5092545;28;20507;-69
2021/11/07 05:33:22;;;;;;;1.63;1.10;;;17.20;99.90;;;;;;5092785;28;20020;-69
2021/11/07 05:35:48;;;;;;;5.72;1.35;;;17.20;99.90;;;;;;5091690;28;20441;-70
2021/11/07 05:38:14;;;;;;;3.28;1.20;;;17.20;99.90;;;;;;5092007;28;20020;-70
2021/11/07 05:40:40;;;;;;;2.45;1.20;;;17.20;99.90;;;;;;5091738;28;20031;-70
2021/11/07 05:43:05;;;;;;;1.17;0.90;;;17.20;99.90;;;;;;5092148;28;20488;-69
2021/11/07 05:45:32;;;;;;;2.78;0.80;;;17.20;99.90;;;;;;5091524;28;20385;-69
2021/11/07 05:47:57;;;;;;;1.90;1.10;;;17.30;99.90;;;;;;5091851;28;20476;-69
2021/11/07 05:50:24;;;;;;;1.40;1.00;;;17.20;99.90;;;;;;5092154;28;20024;-70
2021/11/07 05:52:51;;;;;;;1.63;0.95;;;17.30;99.90;;;;;;5091768;28;20020;-69
2021/11/07 05:55:17;;;;;;;2.45;1.00;;;17.20;99.90;;;;;;5091561;28;20039;-70
2021/11/07 05:57:43;;;;;;;2.05;1.23;;;17.30;99.90;;;;;;5091310;28;20024;-69
2021/11/07 06:00:10;;;;;;;1.83;0.80;;;17.30;99.90;;;;;;5091630;28;20468;-69
2021/11/07 06:02:37;;;;;;;2.67;0.98;;;17.30;99.90;;;;;;5091326;28;20031;-68
2021/11/07 06:05:04;;;;;;;4.60;0.95;;;17.30;99.90;;;;;;5090400;28;20028;-68
2021/11/07 06:07:29;;;;;;;2.10;1.00;;;17.30;99.90;;;;;;5091304;28;20047;-69
2021/11/07 06:09:55;;;;;;;2.15;1.10;;;17.30;99.90;;;;;;5091932;28;20437;-69
2021/11/07 06:12:20;;;;;;;2.50;1.15;;;17.30;99.90;;;;;;5091496;28;20024;-69
2021/11/07 06:14:46;;;;;;;1.70;1.02;;;17.30;99.90;;;;;;5091100;28;20254;-69
2021/11/07 06:17:12;;;;;;;3.92;1.00;;;17.30;99.90;;;;;;5091670;28;20024;-70
2021/11/07 06:19:38;;;;;;;1.75;0.98;;;17.30;99.90;;;;;;5091247;28;20099;-69
2021/11/07 06:22:04;;;;;;;2.00;0.95;;;17.30;99.90;;;;;;5091690;28;20494;-69
2021/11/07 06:24:32;;;;;;;4.50;1.00;;;17.30;99.90;;;;;;5091220;28;20031;-69
2021/11/07 06:26:58;;;;;;;6.05;0.90;;;17.40;99.90;;;;;;5091396;28;20028;-69
2021/11/07 06:29:27;;;;;;;1.92;1.00;;;17.40;99.90;;;;;;5091541;28;20032;-69
2021/11/07 06:31:55;;;;;;;1.30;0.80;;;17.40;99.90;;;;;;5091700;28;20065;-69
2021/11/07 06:34:22;;;;;;;3.53;0.88;;;17.40;99.90;;;;;;5091275;28;20028;-69
2021/11/07 06:36:48;;;;;;;1.63;0.80;;;17.40;99.90;;;;;;5091351;28;20111;-69
2021/11/07 06:39:15;;;;;;;2.80;0.90;;;17.40;99.90;;;;;;5091319;28;20028;-69
2021/11/07 06:41:42;;;;;;;1.33;0.65;;;17.40;99.90;;;;;;5091092;28;20047;-68
2021/11/07 06:44:08;;;;;;;3.55;0.93;;;17.40;99.90;;;;;;5091294;28;20020;-68
2021/11/07 06:46:35;;;;;;;2.38;0.98;;;17.40;99.90;;;;;;5091040;28;20024;-68
2021/11/07 06:49:04;;;;;;;2.75;0.80;;;17.40;99.90;;;;;;5091207;28;20119;-68
2021/11/07 06:51:30;;;;;;;0.95;0.75;;;17.40;99.90;;;;;;5090850;28;20028;-69
2021/11/07 06:53:55;;;;;;;1.45;0.77;;;17.40;99.90;;;;;;5091406;28;20055;-68
2021/11/07 06:56:21;;;;;;;1.70;0.93;;;17.50;99.90;;;;;;5091216;28;20094;-69
2021/11/07 06:58:47;;;;;;;2.78;0.82;;;17.50;99.90;;;;;;5090826;28;20036;-69
2021/11/07 07:01:13;;;;;;;1.42;0.63;;;17.50;99.90;;;;;;5091162;28;20024;-69
2021/11/07 07:03:38;;;;;;;2.33;0.70;;;17.50;99.90;;;;;;5090889;28;20357;-69
2021/11/07 07:06:04;;;;;;;1.98;0.90;;;17.50;99.90;;;;;;5091188;28;20153;-68
2021/11/07 07:08:41;;;;;;;2.00;0.90;;;17.50;99.90;;;;;;5090941;28;20027;-69
2021/11/07 07:11:11;;;;;;;3.22;0.75;;;17.50;99.90;;;;;;5091141;28;20024;-68
2021/11/07 07:13:53;;;;;;;1.80;0.95;;;17.60;99.90;;;;;;5091670;28;20024;-69
2021/11/07 07:34:24;;;;;;;2.53;0.88;;;17.70;99.90;;;;;;5094784;28;20027;-70
2021/11/07 07:36:50;;;;;;;7.53;1.00;;;17.70;99.90;;;;;;5094123;28;20528;-72
2021/11/07 07:39:17;;;;;;;3.58;0.95;;;17.70;99.90;;;;;;5094508;28;20508;-69
2021/11/07 07:41:43;;;;;;;3.13;0.77;;;17.70;99.90;;;;;;5093975;28;20098;-70
2021/11/07 07:44:10;;;;;;;3.10;0.77;;;17.70;99.90;;;;;;5094168;28;20034;-70
2021/11/07 07:46:39;;;;;;;2.45;0.80;;;17.80;99.90;;;;;;5093813;28;20781;-68
2021/11/07 07:49:05;;;;;;;1.67;0.60;;;17.80;99.90;;;;;;5094237;28;20028;-70
2021/11/07 07:51:31;;;;;;;2.78;0.75;;;17.80;99.90;;;;;;5093939;28;20100;-70
2021/11/07 07:54:01;;;;;;;1.75;0.50;;;17.80;99.90;;;;;;5094091;28;20028;-70
2021/11/07 07:56:27;;;;;;;3.78;0.82;;;17.80;99.90;;;;;;5093718;28;20112;-69
2021/11/07 07:58:53;;;;;;;2.53;0.82;;;17.90;99.90;;;;;;5093984;28;20402;-69
2021/11/07 08:01:19;;;;;;;2.47;1.23;;;17.80;99.90;;;;;;5093709;28;20079;-69
2021/11/07 08:03:44;;;;;;;2.20;0.80;;;17.80;99.90;;;;;;5093585;28;20012;-68
2021/11/07 08:06:10;;;;;;;1.10;0.70;;;17.90;99.90;;;;;;5093928;28;20094;-68
2021/11/07 08:08:36;;;;;;;4.60;0.73;;;17.90;99.90;;;;;;5093532;28;20106;-68
2021/11/07 08:11:02;;;;;;;2.28;0.73;;;17.90;99.90;;;;;;5093751;28;20020;-69
2021/11/07 08:13:27;;;;;;;4.03;1.05;;;17.90;99.90;;;;;;5093231;28;20017;-68
2021/11/07 08:15:54;;;;;;;3.90;0.90;;;17.90;99.90;;;;;;5093868;28;20072;-68
2021/11/07 08:18:20;;;;;;;3.08;0.85;;;17.90;99.90;;;;;;5093578;28;20028;-68
2021/11/07 08:20:47;;;;;;;1.80;0.80;;;17.90;99.90;;;;;;5093131;28;20437;-69
2021/11/07 08:23:13;;;;;;;0.80;0.52;;;18.00;99.90;;;;;;5093303;28;20024;-68
2021/11/07 08:25:39;;;;;;;3.45;0.70;;;18.00;99.90;;;;;;5093016;28;20028;-69
2021/11/07 08:28:06;;;;;;;2.95;0.85;;;18.00;99.90;;;;;;5093261;28;20095;-69
2021/11/07 08:30:41;;;;;;;2.35;0.65;;;18.00;99.90;;;;;;5093203;28;20103;-69
2021/11/07 08:33:08;;;;;;;3.67;0.90;;;18.00;99.90;;;;;;5093343;28;20020;-69
2021/11/07 08:35:38;;;;;;;3.45;1.17;;;18.00;99.90;;;;;;5092861;28;20050;-69
2021/11/07 08:38:10;;;;;;;1.67;0.70;;;18.10;99.90;;;;;;5093213;28;20047;-69
2021/11/07 08:40:48;;;;;;;5.22;0.82;;;18.10;99.90;;;;;;5092507;28;20484;-68
2021/11/07 09:02:28;;;;;;;8.05;1.88;;;17.80;99.90;;;;;;5092665;28;20532;-71
2021/11/07 09:05:02;;;;;;;10.05;2.65;;;17.80;99.90;;;;;;5093006;28;20110;-71
2021/11/07 09:10:05;;;;;;;12.27;2.85;;;17.80;99.90;;;;;;5092808;28;20464;-70
2021/11/07 09:12:32;;;;;;;8.90;2.55;;;17.70;99.90;;;;;;5092515;28;20063;-71
2021/11/07 09:14:58;;;;;;;9.00;2.58;;;17.70;99.90;;;;;;5092269;28;20068;-73
2021/11/07 09:17:24;;;;;;;10.68;2.78;;;17.70;99.90;;;;;;5092450;28;20453;-71
2021/11/07 09:19:53;;;;;;;7.85;2.28;;;17.70;99.90;;;;;;5092186;28;20059;-70
2021/11/07 09:24:56;;;;;;;6.85;2.42;;;17.80;99.90;;;;;;5079544;28;20024;-70
2021/11/07 09:34:52;;;;;;;5.82;2.10;;;17.90;99.90;;;;;;5091636;28;20028;-71
2021/11/07 09:37:33;;;;;;;7.90;2.45;;;17.90;99.90;;;;;;5075297;28;20024;-71
2021/11/07 09:40:01;;;;;;;5.78;2.35;;;17.90;99.90;;;;;;5076324;28;20016;-71
2021/11/07 09:45:20;;;;;;;7.22;2.45;;;18.00;99.90;;;;;;5086319;28;20081;-71
2021/11/07 09:47:51;;;;;;;6.03;2.40;;;18.00;99.90;;;;;;5088124;28;20172;-71
2021/11/07 09:50:17;;;;;;;6.47;2.20;;;18.00;99.90;;;;;;5078699;28;20808;-71
2021/11/07 09:52:48;;;;;;;7.53;2.22;;;18.00;99.90;;;;;;5085440;28;20066;-71
2021/11/07 09:55:16;;;;;;;5.82;1.85;;;18.10;99.90;;;;;;5089990;28;20036;-71
2021/11/07 09:57:43;;;;;;;8.07;2.08;;;18.10;99.90;;;;;;5090313;28;20070;-71
2021/11/07 10:00:15;;;;;;;10.25;2.10;;;18.10;99.90;;;;;;5091659;28;20028;-68
2021/11/07 10:02:41;;;;;;;7.65;1.83;;;18.10;99.90;;;;;;5091587;28;20016;-70
2021/11/07 10:05:09;;;;;;;8.93;2.05;;;18.20;99.90;;;;;;5091056;28;20032;-71
2021/11/07 10:07:37;;;;;;;5.50;1.85;;;18.20;99.90;;;;;;5091560;28;20111;-71
2021/11/07 10:10:20;;;;;;;7.07;1.85;;;18.20;99.90;;;;;;5091628;28;20026;-73
2021/11/07 10:12:51;;;;;;;7.28;1.60;;;18.20;99.90;;;;;;5091558;28;20115;-71
2021/11/07 10:15:30;;;;;;;6.40;1.80;;;18.20;99.90;;;;;;5091712;28;20388;-70
2021/11/07 10:20:41;;;;;;;5.78;2.00;;;18.30;99.90;;;;;;5091593;28;20031;-71
2021/11/07 10:23:26;;;;;;;9.38;1.80;;;18.30;99.90;;;;;;5091513;28;20028;-71
2021/11/07 10:35:00;;;;;;;4.13;1.48;;;18.40;99.90;;;;;;5089887;28;20036;-71
2021/11/07 10:37:36;;;;;;;4.32;1.52;;;18.40;99.90;;;;;;5083726;28;20127;-73
2021/11/07 10:54:17;;;;;;;6.78;2.08;;;18.60;99.90;;;;;;5081135;28;20043;-69
2021/11/07 10:56:45;;;;;;;5.05;1.67;;;18.70;99.90;;;;;;5086702;28;20391;-69
2021/11/07 10:59:16;;;;;;;8.00;1.50;;;18.70;99.90;;;;;;5086617;28;20123;-70
2021/11/07 11:01:44;;;;;;;4.22;1.67;;;18.70;99.90;;;;;;5091417;28;20383;-70
2021/11/07 11:04:10;;;;;;;5.85;1.85;;;18.70;99.90;;;;;;5088118;28;20012;-70
2021/11/07 11:06:36;;;;;;;7.50;1.70;;;18.70;99.90;;;;;;5094383;28;20024;-69
2021/11/07 11:09:11;;;;;;;4.32;1.55;;;18.80;99.90;;;;;;5077887;28;20032;-70
2021/11/07 11:14:24;;;;;;;5.80;1.83;;;18.80;99.90;;;;;;5089015;28;20115;-70
2021/11/07 11:17:05;;;;;;;5.05;1.58;;;18.80;99.90;;;;;;5091557;28;20024;-69
2021/11/07 11:33:13;;;;;;;3.67;1.40;;;18.90;99.90;;;;;;5093104;28;20023;-69
2021/11/07 11:38:16;;;;;;;5.25;1.55;;;19.00;99.90;;;;;;5093940;28;20025;-69
2021/11/07 11:40:59;;;;;;;3.75;1.60;;;19.00;99.90;;;;;;5093752;28;20033;-70
2021/11/07 11:43:40;;;;;;;6.63;2.10;;;19.00;99.90;;;;;;5094604;28;20034;-69
2021/11/07 11:46:36;;;;;;;6.38;1.50;;;19.00;99.90;;;;;;5094393;28;20040;-70
2021/11/07 11:51:40;;;;;;;3.25;1.50;;;18.90;99.90;;;;;;5092452;28;20028;-70
2021/11/07 11:57:15;;;;;;;5.18;1.52;;;19.00;99.90;;;;;;5093915;28;20116;-70
2021/11/07 12:02:46;;;;;;;4.22;1.52;;;19.00;99.90;;;;;;5093813;28;20052;-70
2021/11/07 12:10:50;;;;;;;5.68;1.55;;;19.00;99.90;;;;;;5093571;28;20032;-67
2021/11/07 12:16:37;;;;;;;4.75;1.42;;;19.00;99.90;;;;;;5091091;28;20405;-71
2021/11/07 12:19:10;;;;;;;2.95;1.10;;;19.00;99.90;;;;;;5091951;28;20483;-69
2021/11/07 12:21:51;;;;;;;5.25;1.50;;;19.00;99.90;;;;;;5091714;28;20047;-70
2021/11/07 12:24:18;;;;;;;5.15;1.90;;;19.00;99.90;;;;;;5106472;28;20039;-71
2021/11/07 12:26:44;;;;;;;7.93;1.52;;;19.00;99.90;;;;;;5091618;28;20169;-71
2021/11/07 12:29:12;;;;;;;4.57;1.55;;;19.00;99.90;;;;;;5091798;28;20103;-71
2021/11/07 12:32:12;;;;;;;3.33;1.30;;;19.00;99.90;;;;;;5091481;28;20487;-70
2021/11/07 12:35:05;;;;;;;5.13;1.42;;;19.10;99.90;;;;;;5085074;28;20043;-70
2021/11/07 12:40:39;;;;;;;3.95;1.20;;;19.00;99.90;;;;;;5091657;28;20169;-71
2021/11/07 12:43:08;;;;;;;3.13;0.98;;;19.10;99.90;;;;;;5092419;28;20016;-71
2021/11/07 12:45:39;;;;;;;6.40;1.50;;;19.10;99.90;;;;;;5092837;28;20526;-71
2021/11/07 12:48:08;;;;;;;3.33;1.27;;;19.10;99.90;;;;;;5092807;28;20031;-71
2021/11/07 12:50:55;;;;;;;3.40;1.00;;;19.10;99.90;;;;;;5090853;28;20067;-71
2021/11/07 12:53:25;;;;;;;3.03;1.30;;;19.10;99.90;;;;;;5089145;28;20055;-69
2021/11/07 12:55:51;;;;;;;4.63;1.67;;;19.10;99.90;;;;;;5091145;28;20050;-73
2021/11/07 12:58:17;;;;;;;2.83;1.13;;;19.10;99.90;;;;;;5091229;28;20063;-76
2021/11/07 13:00:44;;;;;;;4.90;1.60;;;19.10;99.90;;;;;;5091093;28;20028;-71
2021/11/07 13:03:12;;;;;;;5.90;1.60;;;19.10;99.90;;;;;;5091277;28;20108;-69
2021/11/07 13:05:39;;;;;;;9.15;1.55;;;19.10;99.90;;;;;;5090897;28;20077;-70
2021/11/07 13:08:09;;;;;;;3.70;1.00;;;19.10;99.90;;;;;;5091055;28;20073;-70
2021/11/07 13:13:16;;;;;;;4.70;1.45;;;19.10;99.90;;;;;;5090295;28;20447;-70
2021/11/07 13:26:58;;;;;;;4.20;1.35;;;19.10;99.90;;;;;;5092084;28;20028;-69
2021/11/07 13:29:37;;;;;;;3.10;1.15;;;19.10;99.90;;;;;;5091793;28;20155;-71
2021/11/07 13:32:37;;;;;;;3.72;1.45;;;19.10;99.90;;;;;;5091788;28;20024;-69
2021/11/07 13:35:08;;;;;;;2.85;1.05;;;19.10;99.90;;;;;;5089882;28;20028;-68
2021/11/07 13:37:54;;;;;;;7.45;1.40;;;19.10;99.90;;;;;;5090343;28;20536;-69
2021/11/07 13:40:31;;;;;;;4.38;1.17;;;19.10;99.90;;;;;;5089562;28;20073;-68
2021/11/07 13:43:06;;;;;;;4.53;1.20;;;19.20;99.90;;;;;;5089290;28;20028;-69
2021/11/07 13:45:34;;;;;;;5.22;1.20;;;19.10;99.90;;;;;;5088017;28;20051;-67
2021/11/07 13:48:01;;;;;;;3.58;1.25;;;19.10;99.90;;;;;;5091743;28;20032;-69
2021/11/07 13:50:34;;;;;;;3.28;1.13;;;19.10;99.90;;;;;;5091734;28;20070;-68
2021/11/07 13:53:04;;;;;;;5.38;1.40;;;19.00;99.90;;;;;;5091665;28;20035;-68
2021/11/07 13:55:33;;;;;;;4.75;1.60;;;19.00;99.90;;;;;;5090179;28;20044;-68
2021/11/07 13:58:20;;;;;;;6.10;1.38;;;19.00;99.90;;;;;;5088529;28;20460;-68
2021/11/07 14:00:47;;;;;;;10.25;1.92;;;19.00;99.90;;;;;;5090833;28;20043;-67
2021/11/07 14:03:17;;;;;;;9.55;1.80;;;19.00;99.90;;;;;;5091876;28;20020;-68
2021/11/07 14:06:05;;;;;;;6.53;1.67;;;19.00;99.90;;;;;;5091387;28;20020;-71
2021/11/07 14:08:56;;;;;;;6.15;1.42;;;19.10;99.90;;;;;;5091335;28;20017;-71
2021/11/07 14:11:23;;;;;;;9.55;1.63;;;19.00;99.90;;;;;;5089682;28;20027;-72
2021/11/07 14:13:52;;;;;;;4.57;1.50;;;19.10;99.90;;;;;;5090787;28;20388;-72
2021/11/07 14:16:31;;;;;;;7.10;1.45;;;19.00;99.90;;;;;;5088785;28;20036;-71
2021/11/07 14:18:57;;;;;;;7.45;1.40;;;19.00;99.90;;;;;;5091214;28;20031;-71
2021/11/07 14:21:26;;;;;;;7.38;1.60;;;19.00;99.90;;;;;;5091499;28;20077;-71
2021/11/07 14:34:55;;;;;;;5.00;1.45;;;19.00;99.90;;;;;;5080830;28;20036;-70
2021/11/07 14:40:09;;;;;;;6.95;1.88;;;19.10;99.90;;;;;;5074464;28;20052;-71
2021/11/07 14:42:49;;;;;;;4.00;1.13;;;19.10;99.90;;;;;;5074866;28;20052;-71
2021/11/07 15:02:26;;;;;;;4.97;1.30;;;19.00;99.90;;;;;;5095068;28;20031;-71
2021/11/07 15:05:03;;;;;;;3.40;1.30;;;19.00;99.90;;;;;;5094732;28;20506;-71
2021/11/07 15:10:24;;;;;;;5.28;1.58;;;19.00;99.90;;;;;;5094789;28;20032;-71
2021/11/07 15:13:34;;;;;;;3.83;1.58;;;19.00;99.90;;;;;;5094290;28;20472;-71
2021/11/07 15:21:15;;;;;;;4.90;1.42;;;19.00;99.90;;;;;;5094572;28;20365;-71
2021/11/07 15:23:42;;;;;;;8.38;1.60;;;18.90;99.90;;;;;;5094224;28;20412;-71
2021/11/07 15:26:21;;;;;;;6.35;1.70;;;18.90;99.90;;;;;;5094642;28;20104;-71
2021/11/07 15:29:07;;;;;;;6.43;1.60;;;18.90;99.90;;;;;;5094198;28;20553;-71
2021/11/07 15:31:33;;;;;;;4.82;1.55;;;18.90;99.90;;;;;;5094217;28;20016;-71
2021/11/07 15:34:07;;;;;;;7.55;1.70;;;18.90;99.90;;;;;;5093225;28;20422;-71
2021/11/07 15:36:46;;;;;;;4.38;1.33;;;18.90;99.90;;;;;;5092706;28;20048;-71
2021/11/07 15:39:18;;;;;;;4.68;1.48;;;18.90;99.90;;;;;;5094323;28;20056;-71
2021/11/07 15:42:10;;;;;;;6.47;1.73;;;18.90;99.90;;;;;;5093984;28;20376;-71
2021/11/07 15:44:48;;;;;;;4.35;1.60;;;18.90;99.90;;;;;;5094098;28;20110;-71
2021/11/07 15:47:16;;;;;;;4.72;1.52;;;18.80;99.90;;;;;;5094222;28;20020;-71
2021/11/07 15:49:50;;;;;;;6.88;1.60;;;18.80;99.90;;;;;;5093691;28;20028;-71
2021/11/07 15:52:30;;;;;;;7.00;2.05;;;18.80;99.90;;;;;;5094117;28;20035;-71
2021/11/07 15:58:22;;;;;;;3.70;1.15;;;18.80;99.90;;;;;;5092784;28;20024;-71
2021/11/07 16:16:50;;;;;;;7.93;1.73;;;18.70;99.90;;;;;;5093004;28;20436;-71
2021/11/07 16:18:44;;;;;;;5.28;1.70;;;18.70;99.90;;;;;;5088296;28;20036;-71
2021/11/07 16:21:13;;;;;;;5.18;1.40;;;18.70;99.90;;;;;;5093361;28;20024;-71
2021/11/07 16:23:39;;;;;;;5.25;1.60;;;18.70;99.90;;;;;;5093196;28;20380;-72
2021/11/07 16:26:10;;;;;;;5.82;1.85;;;18.70;99.90;;;;;;5093471;28;20020;-71
2021/11/07 16:28:38;;;;;;;5.97;1.70;;;18.60;99.90;;;;;;5093101;28;20024;-71
2021/11/07 16:31:07;;;;;;;5.15;1.48;;;18.60;99.90;;;;;;5093290;28;20016;-71
2021/11/07 16:33:42;;;;;;;4.97;1.65;;;18.60;99.90;;;;;;5092995;28;20022;-71
2021/11/07 16:36:12;;;;;;;4.93;1.58;;;18.60;99.90;;;;;;5092966;28;20028;-71
2021/11/07 16:39:01;;;;;;;3.38;1.25;;;18.60;99.90;;;;;;5092988;28;20472;-71
2021/11/07 16:41:37;;;;;;;4.82;1.58;;;18.60;99.90;;;;;;5093092;28;20033;-71
2021/11/07 16:44:04;;;;;;;6.65;1.45;;;18.50;99.90;;;;;;5093117;28;20039;-68
2021/11/07 16:46:32;;;;;;;3.67;1.50;;;18.50;99.90;;;;;;5092753;28;20026;-71